Aviation Digital Data Service (ADDS)

Output produced by METARs form (0713 UTC 30 March 2023)
found at http://www.aviationweather.gov/metar/data/
 
ESTA 300650Z 11014KT 6000 -RA BKN007 05/05 Q1004
TAF AMD ESTA 300633Z 3006/3015 10012KT 5000 -RADZ BKN008 
     TEMPO 3006/3015 2000 RADZ BR BKN004